createdAt,value
2023-03-05T00:00:04.579Z,100108.25
2023-03-05T00:02:53.254Z,100106.66
2023-03-05T00:05:26.502Z,100106.97
2023-03-05T00:07:57.066Z,100110.47
2023-03-05T00:10:44.782Z,100096.47
2023-03-05T00:13:25.372Z,100101.87
2023-03-05T00:16:20.095Z,100099.47
2023-03-05T00:18:52.671Z,100107.84
2023-03-05T00:21:34.282Z,100107.84
2023-03-05T00:24:09.237Z,100111.63
2023-03-05T00:26:40.743Z,100110.03
2023-03-05T00:29:18.910Z,100102.25
2023-03-05T00:31:51.692Z,100108.44
2023-03-05T00:34:23.007Z,100106.84
2023-03-05T00:36:55.935Z,100104.44
2023-03-05T00:39:29.656Z,100103.66
2023-03-05T00:41:59.364Z,100104.75
2023-03-05T00:44:26.799Z,100100.47
2023-03-05T00:46:55.825Z,100096.16
2023-03-05T00:49:26.163Z,100103.72
2023-03-05T00:51:56.385Z,100096.72
2023-03-05T00:54:24.250Z,100110.19
2023-03-05T00:56:57.047Z,100120.16
2023-03-05T00:59:25.108Z,100113.19
2023-03-05T01:01:55.289Z,100112.38
2023-03-05T01:04:27.966Z,100105.41
2023-03-05T01:06:55.498Z,100093.03
2023-03-05T01:09:30.765Z,100101.09
2023-03-05T01:12:01.127Z,100091.44
2023-03-05T01:14:34.579Z,100070.50
2023-03-05T01:17:01.962Z,100089.06
2023-03-05T01:19:32.625Z,100087.47
2023-03-05T01:22:04.501Z,100081.25
2023-03-05T01:24:35.074Z,100078.09
2023-03-05T01:27:03.560Z,100068.13
2023-03-05T01:29:36.794Z,100079.19
2023-03-05T01:32:07.325Z,100087.25
2023-03-05T01:34:42.907Z,100084.84
2023-03-05T01:37:13.156Z,100085.16
2023-03-05T01:39:40.680Z,100094.81
2023-03-05T01:42:07.887Z,100094.00
2023-03-05T01:44:38.122Z,100101.28
2023-03-05T01:47:05.532Z,100100.50
2023-03-05T01:49:38.797Z,100102.41
2023-03-05T01:52:20.423Z,100089.53
2023-03-05T01:55:04.308Z,100093.81
2023-03-05T01:57:58.084Z,100095.19
2023-03-05T02:00:34.889Z,100096.00
2023-03-05T02:03:07.575Z,100099.75
2023-03-05T02:05:40.981Z,100091.16
2023-03-05T02:08:13.632Z,100092.75
2023-03-05T02:10:42.266Z,100092.75
2023-03-05T02:13:19.970Z,100101.94
2023-03-05T02:15:58.395Z,100093.34
2023-03-05T02:18:33.194Z,100107.88
2023-03-05T02:21:12.900Z,100101.72
2023-03-05T02:23:44.489Z,100097.13
2023-03-05T02:26:17.830Z,100090.16
2023-03-05T02:28:49.921Z,100097.72
2023-03-05T02:31:26.449Z,100095.00
2023-03-05T02:33:56.726Z,100096.91
2023-03-05T02:36:28.589Z,100094.53
2023-03-05T02:38:56.528Z,100087.53
2023-03-05T02:41:27.121Z,100081.34
2023-03-05T02:44:03.643Z,100075.97
2023-03-05T02:46:36.658Z,100088.63
2023-03-05T02:49:10.729Z,100084.34
2023-03-05T02:51:42.295Z,100076.75
2023-03-05T02:54:12.597Z,100086.50
2023-03-05T02:56:40.411Z,100081.13
2023-03-05T02:59:10.177Z,100084.13
2023-03-05T03:01:40.624Z,100077.94
2023-03-05T03:04:08.468Z,100082.53
2023-03-05T03:06:39.552Z,100073.69
2023-03-05T03:09:09.985Z,100067.78
2023-03-05T03:11:40.808Z,100072.34
2023-03-05T03:14:14.506Z,100059.22
2023-03-05T03:16:51.568Z,100053.84
2023-03-05T03:19:22.572Z,100057.59
2023-03-05T03:21:52.538Z,100057.59
2023-03-05T03:24:23.303Z,100061.37
2023-03-05T03:26:53.739Z,100053.31
2023-03-05T03:29:27.446Z,100067.06
2023-03-05T03:32:01.494Z,100070.56
2023-03-05T03:34:34.437Z,100070.56
2023-03-05T03:37:04.762Z,100068.97
2023-03-05T03:39:35.717Z,100068.44
2023-03-05T03:42:09.904Z,100068.44
2023-03-05T03:44:43.065Z,100064.16
2023-03-05T03:47:11.886Z,100064.16
2023-03-05T03:49:42.263Z,100062.53
2023-03-05T03:52:13.526Z,100062.53
2023-03-05T03:54:46.279Z,100066.31
2023-03-05T03:57:16.671Z,100057.78
2023-03-05T03:59:57.173Z,100063.16
2023-03-05T04:02:31.308Z,100058.84
2023-03-05T04:05:05.468Z,100063.72
2023-03-05T04:07:33.508Z,100052.97
2023-03-05T04:10:06.194Z,100056.75
2023-03-05T04:12:42.170Z,100048.16
2023-03-05T04:15:12.420Z,100039.00
2023-03-05T04:17:43.080Z,100048.16
2023-03-05T04:20:15.326Z,100051.94
2023-03-05T04:22:51.503Z,100042.28
2023-03-05T04:25:26.178Z,100047.69
2023-03-05T04:27:56.727Z,100043.38
2023-03-05T04:30:30.486Z,100048.25
2023-03-05T04:33:01.194Z,100052.03
2023-03-05T04:35:30.626Z,100054.72
2023-03-05T04:37:58.835Z,100053.09
2023-03-05T04:40:33.575Z,100053.09
2023-03-05T04:43:08.872Z,100048.03
2023-03-05T04:45:42.505Z,100049.63
2023-03-05T04:48:16.273Z,100046.44
2023-03-05T04:50:46.781Z,100048.34
2023-03-05T04:53:18.914Z,100044.03
2023-03-05T04:55:46.504Z,100046.72
2023-03-05T04:58:19.651Z,100038.16
2023-03-05T05:00:50.469Z,100047.31
2023-03-05T05:03:21.527Z,100044.31
2023-03-05T05:05:59.376Z,100040.31
2023-03-05T05:08:32.920Z,100043.31
2023-03-05T05:11:07.493Z,100042.50
2023-03-05T05:13:44.557Z,100035.53
2023-03-05T05:16:14.201Z,100043.87
2023-03-05T05:18:42.050Z,100052.75
2023-03-05T05:21:13.264Z,100048.47
2023-03-05T05:23:46.991Z,100036.41
2023-03-05T05:26:17.943Z,100035.91
2023-03-05T05:28:48.061Z,100031.62
2023-03-05T05:31:18.621Z,100037.28
2023-03-05T05:33:50.110Z,100032.19
2023-03-05T05:36:19.316Z,100033.56
2023-03-05T05:39:26.850Z,100033.06
2023-03-05T05:42:19.687Z,100039.81
2023-03-05T05:44:53.172Z,100045.19
2023-03-05T05:47:33.086Z,100041.41
2023-03-05T05:50:13.105Z,100038.00
2023-03-05T05:52:43.419Z,100027.88
2023-03-05T05:55:17.264Z,100030.03
2023-03-05T05:57:44.871Z,100027.91
2023-03-05T06:00:15.937Z,100029.81
2023-03-05T06:02:45.250Z,100044.03
2023-03-05T06:05:17.706Z,100053.41
2023-03-05T06:07:49.187Z,100042.91
2023-03-05T06:10:19.426Z,100045.53
2023-03-05T06:12:52.637Z,100051.94
2023-03-05T06:15:23.095Z,100050.56
2023-03-05T06:17:52.995Z,100043.81
2023-03-05T06:20:22.017Z,100045.69
2023-03-05T06:22:49.484Z,100041.63
2023-03-05T06:25:16.428Z,100045.91
2023-03-05T06:27:52.844Z,100050.72
2023-03-05T06:30:28.429Z,100049.84
2023-03-05T06:32:55.969Z,100046.28
2023-03-05T06:35:23.406Z,100050.06
2023-03-05T06:37:51.296Z,100053.28
2023-03-05T06:40:32.770Z,100052.69
2023-03-05T06:43:09.412Z,100052.88
2023-03-05T06:45:43.149Z,100066.63
2023-03-05T06:48:14.032Z,100066.06
2023-03-05T06:50:44.019Z,100062.78
2023-03-05T06:53:14.863Z,100069.44
2023-03-05T06:55:45.618Z,100060.81
2023-03-05T06:58:19.096Z,100063.50
2023-03-05T07:00:49.941Z,100069.66
2023-03-05T07:03:18.941Z,100065.62
2023-03-05T07:05:49.871Z,100067.72
2023-03-05T07:08:21.079Z,100061.75
2023-03-05T07:10:50.958Z,100064.16
2023-03-05T07:13:21.453Z,100065.75
2023-03-05T07:15:55.004Z,100056.59
2023-03-05T07:18:26.662Z,100058.69
2023-03-05T07:20:59.324Z,100064.59
2023-03-05T07:23:30.617Z,100062.91
2023-03-05T07:25:58.107Z,100055.66
2023-03-05T07:28:26.457Z,100052.66
2023-03-05T07:31:05.973Z,100056.94
2023-03-05T07:33:33.778Z,100054.75
2023-03-05T07:36:04.914Z,100055.25
2023-03-05T07:38:33.057Z,100053.66
2023-03-05T07:41:08.972Z,100052.88
2023-03-05T07:43:39.691Z,100054.66
2023-03-05T07:46:14.690Z,100050.87
2023-03-05T07:48:46.082Z,100037.94
2023-03-05T07:51:15.739Z,100038.53
2023-03-05T07:53:46.909Z,100035.78
2023-03-05T07:56:24.688Z,100040.63
2023-03-05T07:58:51.749Z,100043.03
2023-03-05T08:01:19.557Z,100034.41
2023-03-05T08:03:58.386Z,100040.56
2023-03-05T08:06:26.127Z,100030.41
2023-03-05T08:09:00.671Z,100029.03
2023-03-05T08:11:28.612Z,100031.44
2023-03-05T08:13:55.694Z,100040.00
2023-03-05T08:16:23.080Z,100033.50
2023-03-05T08:18:57.286Z,100032.44
2023-03-05T08:21:30.572Z,100032.94
2023-03-05T08:24:02.702Z,100026.44
2023-03-05T08:26:31.509Z,100024.28
2023-03-05T08:29:02.359Z,100021.59
2023-03-05T08:31:30.119Z,100029.34
2023-03-05T08:34:04.720Z,100017.50
2023-03-05T08:36:32.808Z,100017.50
2023-03-05T08:39:00.307Z,100022.59
2023-03-05T08:41:30.484Z,100026.87
2023-03-05T08:43:57.430Z,100030.06
2023-03-05T08:46:24.920Z,100037.03
2023-03-05T08:48:52.338Z,100041.31
2023-03-05T08:51:26.368Z,100041.84
2023-03-05T08:53:55.793Z,100031.06
2023-03-05T08:56:31.726Z,100034.25
2023-03-05T08:58:59.024Z,100030.50
2023-03-05T09:01:26.790Z,100017.53
2023-03-05T09:04:01.802Z,100019.91
2023-03-05T09:06:31.949Z,100019.63
2023-03-05T09:09:03.697Z,100018.53
2023-03-05T09:11:33.831Z,100014.72
2023-03-05T09:14:08.088Z,100012.56
2023-03-05T09:16:44.605Z,100021.13
2023-03-05T09:19:12.269Z,100018.41
2023-03-05T09:21:51.646Z,100016.56
2023-03-05T09:24:19.676Z,100010.34
2023-03-05T09:26:50.082Z,100015.94
2023-03-05T09:29:23.657Z,100019.41
2023-03-05T09:31:54.901Z,100018.94
2023-03-05T09:34:31.739Z,100007.16
2023-03-05T09:37:01.996Z,100003.97
2023-03-05T09:39:38.051Z,100006.16
2023-03-05T09:42:25.375Z,100006.75
2023-03-05T09:45:04.142Z,100008.97
2023-03-05T09:47:44.606Z,100005.75
2023-03-05T09:50:28.990Z,99995.00
2023-03-05T09:53:05.026Z,99999.56
2023-03-05T09:55:40.618Z,99996.09
2023-03-05T09:58:22.964Z,99991.19
2023-03-05T10:01:14.731Z,99997.69
2023-03-05T10:04:05.416Z,99996.56
2023-03-05T10:07:12.667Z,99997.69
2023-03-05T10:09:55.821Z,99984.22
2023-03-05T10:12:40.665Z,99986.59
2023-03-05T10:15:22.321Z,99987.91
2023-03-05T10:18:13.655Z,99982.06
2023-03-05T10:20:51.580Z,99982.06
2023-03-05T10:23:24.723Z,99977.47
2023-03-05T10:26:20.512Z,99971.28
2023-03-05T10:29:23.182Z,99973.16
2023-03-05T10:32:17.834Z,99976.66
2023-03-05T10:34:51.013Z,99981.22
2023-03-05T10:37:39.219Z,99982.06
2023-03-05T10:40:16.441Z,99969.66
2023-03-05T10:43:18.143Z,99968.06
2023-03-05T10:45:51.608Z,99966.50
2023-03-05T10:48:42.998Z,99962.69
2023-03-05T10:51:15.790Z,99958.69
2023-03-05T10:53:59.718Z,99959.50
2023-03-05T10:56:35.926Z,99954.09
2023-03-05T10:59:05.839Z,99948.72
2023-03-05T11:01:36.075Z,99955.72
2023-03-05T11:04:28.526Z,99951.12
2023-03-05T11:06:58.832Z,99941.16
2023-03-05T11:09:31.715Z,99935.47
2023-03-05T11:12:07.534Z,99932.00
2023-03-05T11:14:37.420Z,99923.91
2023-03-05T11:17:31.600Z,99922.84
2023-03-05T11:20:27.341Z,99912.06
2023-03-05T11:23:12.614Z,99905.59
2023-03-05T11:25:57.865Z,99904.50
2023-03-05T11:28:38.291Z,99898.62
2023-03-05T11:31:20.029Z,99905.59
2023-03-05T11:34:06.882Z,99895.31
2023-03-05T11:36:42.548Z,99893.72
2023-03-05T11:39:17.550Z,99893.72
2023-03-05T11:42:11.911Z,99887.84
2023-03-05T11:44:50.585Z,99886.25
2023-03-05T11:47:21.068Z,99878.75
2023-03-05T11:49:54.023Z,99876.28
2023-03-05T11:52:45.015Z,99869.03
2023-03-05T11:55:25.872Z,99871.09
2023-03-05T11:58:09.693Z,99865.13
2023-03-05T12:00:42.527Z,99858.63
2023-03-05T12:03:22.192Z,99861.22
2023-03-05T12:06:00.050Z,99853.63
2023-03-05T12:08:38.838Z,99855.72
2023-03-05T12:11:30.673Z,99854.03
2023-03-05T12:14:10.946Z,99848.03
2023-03-05T12:17:12.474Z,99852.84
2023-03-05T12:20:01.213Z,99839.06
2023-03-05T12:22:40.947Z,99834.47
2023-03-05T12:25:32.753Z,99826.06
2023-03-05T12:28:03.873Z,99825.00
2023-03-05T12:30:48.901Z,99829.59
2023-03-05T12:33:34.922Z,99829.06
2023-03-05T12:36:23.207Z,99823.69
2023-03-05T12:38:59.832Z,99819.91
2023-03-05T12:41:39.160Z,99818.31
2023-03-05T12:44:08.790Z,99815.94
2023-03-05T12:46:40.578Z,99816.22
2023-03-05T12:49:29.369Z,99812.72
2023-03-05T12:52:31.612Z,99813.03
2023-03-05T12:55:34.363Z,99808.75
2023-03-05T12:58:18.563Z,99807.75
2023-03-05T13:00:57.066Z,99807.75
2023-03-05T13:03:39.575Z,99798.41
2023-03-05T13:06:33.614Z,99804.06
2023-03-05T13:09:27.101Z,99800.59
2023-03-05T13:12:10.713Z,99796.63
2023-03-05T13:15:01.993Z,99795.22
2023-03-05T13:18:01.452Z,99790.47
2023-03-05T13:21:12.356Z,99782.66
2023-03-05T13:24:03.770Z,99794.03
2023-03-05T13:26:54.528Z,99785.47
2023-03-05T13:29:53.135Z,99786.28
2023-03-05T13:32:37.745Z,99780.37
2023-03-05T13:35:42.632Z,99780.69
2023-03-05T13:38:50.108Z,99771.03
2023-03-05T13:41:40.774Z,99774.84
2023-03-05T13:44:38.235Z,99775.91
2023-03-05T13:47:29.621Z,99771.94
2023-03-05T13:50:24.221Z,99771.13
2023-03-05T13:52:59.354Z,99765.75
2023-03-05T13:55:52.201Z,99765.75
2023-03-05T13:59:02.192Z,99762.56
2023-03-05T14:01:38.251Z,99755.59
2023-03-05T14:04:22.596Z,99746.75
2023-03-05T14:07:00.862Z,99754.00
2023-03-05T14:09:39.841Z,99745.62
2023-03-05T14:12:30.172Z,99744.06
2023-03-05T14:15:02.087Z,99738.69
2023-03-05T14:17:42.785Z,99737.84
2023-03-05T14:20:39.827Z,99738.69
2023-03-05T14:23:27.356Z,99739.75
2023-03-05T14:26:38.279Z,99734.69
2023-03-05T14:29:16.731Z,99736.88
2023-03-05T14:31:53.471Z,99741.78
2023-03-05T14:34:43.631Z,99739.06
2023-03-05T14:37:28.247Z,99739.06
2023-03-05T14:40:01.369Z,99738.28
2023-03-05T14:42:42.019Z,99732.13
2023-03-05T14:45:16.269Z,99718.94
2023-03-05T14:47:47.071Z,99728.91
2023-03-05T14:50:22.522Z,99728.59
2023-03-05T14:52:54.627Z,99724.84
2023-03-05T14:55:33.833Z,99722.94
2023-03-05T14:58:19.862Z,99730.69
2023-03-05T15:00:53.899Z,99726.72
2023-03-05T15:03:25.886Z,99726.72
2023-03-05T15:05:55.999Z,99716.56
2023-03-05T15:08:29.513Z,99724.13
2023-03-05T15:11:00.592Z,99726.13
2023-03-05T15:13:32.595Z,99723.53
2023-03-05T15:16:01.448Z,99722.84
2023-03-05T15:18:32.455Z,99716.97
2023-03-05T15:21:09.083Z,99719.16
2023-03-05T15:23:41.097Z,99714.56
2023-03-05T15:26:12.888Z,99719.66
2023-03-05T15:28:45.402Z,99715.09
2023-03-05T15:31:19.292Z,99713.19
2023-03-05T15:33:48.971Z,99713.19
2023-03-05T15:36:16.303Z,99706.41
2023-03-05T15:38:46.245Z,99707.69
2023-03-05T15:41:16.616Z,99706.59
2023-03-05T15:43:43.770Z,99707.88
2023-03-05T15:46:13.996Z,99714.38
2023-03-05T15:48:42.059Z,99709.78
2023-03-05T15:51:18.898Z,99709.78
2023-03-05T15:53:51.471Z,99709.00
2023-03-05T15:56:24.805Z,99714.38
2023-03-05T15:58:53.180Z,99712.47
2023-03-05T16:01:23.799Z,99709.78
2023-03-05T16:03:58.299Z,99709.78
2023-03-05T16:06:26.614Z,99715.16
2023-03-05T16:09:01.889Z,99708.19
2023-03-05T16:11:34.419Z,99712.47
2023-03-05T16:14:08.882Z,99711.37
2023-03-05T16:16:37.635Z,99716.75
2023-03-05T16:19:10.199Z,99718.37
2023-03-05T16:21:40.577Z,99707.59
2023-03-05T16:24:10.656Z,99708.19
2023-03-05T16:26:43.961Z,99715.16
2023-03-05T16:29:14.972Z,99721.13
2023-03-05T16:31:42.365Z,99724.94
2023-03-05T16:34:16.192Z,99725.41
2023-03-05T16:36:53.428Z,99728.09
2023-03-05T16:39:28.421Z,99731.09
2023-03-05T16:41:55.664Z,99726.53
2023-03-05T16:44:22.912Z,99728.09
2023-03-05T16:46:53.232Z,99729.72
2023-03-05T16:49:21.674Z,99725.91
2023-03-05T16:52:06.232Z,99730.72
2023-03-05T16:54:49.435Z,99727.50
2023-03-05T16:57:17.175Z,99735.09
2023-03-05T16:59:53.931Z,99731.31
2023-03-05T17:02:21.456Z,99728.94
2023-03-05T17:04:51.839Z,99729.72
2023-03-05T17:07:27.168Z,99729.72
2023-03-05T17:09:56.727Z,99730.31
2023-03-05T17:12:27.289Z,99731.69
2023-03-05T17:14:56.599Z,99733.13
2023-03-05T17:17:30.258Z,99742.25
2023-03-05T17:19:57.213Z,99741.47
2023-03-05T17:22:25.532Z,99747.63
2023-03-05T17:24:52.786Z,99756.81
2023-03-05T17:27:25.932Z,99751.44
2023-03-05T17:29:58.587Z,99745.84
2023-03-05T17:32:31.683Z,99757.13
2023-03-05T17:35:03.213Z,99757.91
2023-03-05T17:37:38.072Z,99759.03
2023-03-05T17:40:09.894Z,99763.88
2023-03-05T17:42:36.759Z,99754.72
2023-03-05T17:45:07.514Z,99763.28
2023-03-05T17:47:39.879Z,99746.38
2023-03-05T17:50:08.417Z,99756.81
2023-03-05T17:52:44.556Z,99752.53
2023-03-05T17:55:13.699Z,99752.53
2023-03-05T17:57:48.497Z,99751.44
2023-03-05T18:00:28.732Z,99760.59
2023-03-05T18:02:59.596Z,99756.34
2023-03-05T18:05:27.806Z,99755.22
2023-03-05T18:07:57.666Z,99755.22
2023-03-05T18:10:26.199Z,99755.22
2023-03-05T18:12:56.153Z,99741.91
2023-03-05T18:15:27.051Z,99746.66
2023-03-05T18:17:54.979Z,99738.91
2023-03-05T18:20:35.791Z,99743.47
2023-03-05T18:23:08.582Z,99747.28
2023-03-05T18:25:42.109Z,99743.47
2023-03-05T18:28:14.001Z,99738.09
2023-03-05T18:30:47.573Z,99741.91
2023-03-05T18:33:30.246Z,99747.28
2023-03-05T18:36:15.089Z,99740.28
2023-03-05T18:38:49.999Z,99738.69
2023-03-05T18:41:27.691Z,99743.28
2023-03-05T18:44:01.863Z,99740.91
2023-03-05T18:46:34.702Z,99741.37
2023-03-05T18:49:05.825Z,99741.37
2023-03-05T18:51:41.586Z,99738.69
2023-03-05T18:54:12.835Z,99740.59
2023-03-05T18:56:44.743Z,99740.28
2023-03-05T18:59:16.537Z,99738.09
2023-03-05T19:01:50.012Z,99739.69
2023-03-05T19:04:20.200Z,99736.22
2023-03-05T19:06:48.022Z,99729.72
2023-03-05T19:09:21.872Z,99726.13
2023-03-05T19:11:53.000Z,99730.91
2023-03-05T19:14:24.777Z,99735.38
2023-03-05T19:16:56.774Z,99733.69
2023-03-05T19:19:25.697Z,99731.72
2023-03-05T19:21:58.388Z,99728.91
2023-03-05T19:24:37.087Z,99728.59
2023-03-05T19:27:09.807Z,99730.88
2023-03-05T19:29:46.321Z,99727.28
2023-03-05T19:32:18.745Z,99727.66
2023-03-05T19:34:47.568Z,99730.22
2023-03-05T19:37:19.016Z,99733.63
2023-03-05T19:39:49.905Z,99729.22
2023-03-05T19:42:28.434Z,99728.59
2023-03-05T19:45:00.161Z,99731.19
2023-03-05T19:47:29.287Z,99729.47
2023-03-05T19:50:20.233Z,99725.06
2023-03-05T19:52:54.064Z,99721.25
2023-03-05T19:55:29.093Z,99724.91
2023-03-05T19:58:07.719Z,99726.22
2023-03-05T20:00:43.185Z,99722.12
2023-03-05T20:03:12.684Z,99724.50
2023-03-05T20:05:42.414Z,99722.31
2023-03-05T20:08:17.137Z,99725.47
2023-03-05T20:10:52.975Z,99728.69
2023-03-05T20:13:27.173Z,99725.66
2023-03-05T20:15:55.684Z,99726.16
2023-03-05T20:18:28.061Z,99722.06
2023-03-05T20:21:03.281Z,99724.47
2023-03-05T20:23:36.944Z,99722.25
2023-03-05T20:26:11.496Z,99721.16
2023-03-05T20:28:47.866Z,99716.25
2023-03-05T20:31:27.948Z,99717.84
2023-03-05T20:33:58.416Z,99722.12
2023-03-05T20:36:26.847Z,99709.16
2023-03-05T20:38:55.375Z,99710.44
2023-03-05T20:41:25.603Z,99720.09
2023-03-05T20:44:05.584Z,99701.25
2023-03-05T20:46:42.898Z,99709.00
2023-03-05T20:49:13.310Z,99709.50
2023-03-05T20:51:53.527Z,99706.50
2023-03-05T20:54:27.020Z,99699.19
2023-03-05T20:56:58.491Z,99701.28
2023-03-05T20:59:28.823Z,99700.16
2023-03-05T21:01:56.558Z,99696.41
2023-03-05T21:04:27.117Z,99696.50
2023-03-05T21:06:54.876Z,99695.41
2023-03-05T21:09:22.791Z,99697.63
2023-03-05T21:11:53.205Z,99690.16
2023-03-05T21:14:21.185Z,99694.41
2023-03-05T21:16:54.490Z,99689.97
2023-03-05T21:19:25.070Z,99691.88
2023-03-05T21:21:58.865Z,99686.91
2023-03-05T21:24:26.982Z,99694.72
2023-03-05T21:26:58.241Z,99682.97
2023-03-05T21:29:26.303Z,99679.78
2023-03-05T21:31:56.429Z,99675.00
2023-03-05T21:34:23.860Z,99671.00
2023-03-05T21:36:54.768Z,99672.91
2023-03-05T21:39:28.813Z,99671.63
2023-03-05T21:41:59.308Z,99668.75
2023-03-05T21:44:29.031Z,99668.28
2023-03-05T21:46:56.645Z,99679.03
2023-03-05T21:49:27.109Z,99674.25
2023-03-05T21:51:54.609Z,99682.66
2023-03-05T21:54:27.399Z,99674.88
2023-03-05T21:56:59.505Z,99680.87
2023-03-05T21:59:30.946Z,99668.03
2023-03-05T22:02:01.756Z,99669.12
2023-03-05T22:04:30.509Z,99671.34
2023-03-05T22:07:02.241Z,99671.34
2023-03-05T22:09:36.165Z,99667.34
2023-03-05T22:12:10.813Z,99671.94
2023-03-05T22:14:43.002Z,99667.16
2023-03-05T22:17:14.009Z,99657.84
2023-03-05T22:19:44.316Z,99661.59
2023-03-05T22:22:21.471Z,99659.69
2023-03-05T22:24:54.164Z,99661.91
2023-03-05T22:27:31.285Z,99654.94
2023-03-05T22:30:04.383Z,99654.44
2023-03-05T22:32:36.744Z,99659.03
2023-03-05T22:35:07.514Z,99652.06
2023-03-05T22:37:40.920Z,99654.25
2023-03-05T22:40:14.557Z,99651.91
2023-03-05T22:42:45.858Z,99651.91
2023-03-05T22:45:16.076Z,99644.09
2023-03-05T22:47:49.257Z,99649.50
2023-03-05T22:50:30.186Z,99657.41
2023-03-05T22:53:00.840Z,99651.72
2023-03-05T22:55:32.833Z,99646.31
2023-03-05T22:58:04.922Z,99638.56
2023-03-05T23:00:39.439Z,99643.44
2023-03-05T23:03:15.971Z,99635.37
2023-03-05T23:05:46.127Z,99627.63
2023-03-05T23:08:16.972Z,99633.00
2023-03-05T23:10:48.002Z,99636.78
2023-03-05T23:13:18.610Z,99635.97
2023-03-05T23:15:53.051Z,99633.59
2023-03-05T23:18:20.758Z,99638.19
2023-03-05T23:20:51.409Z,99632.81
2023-03-05T23:23:19.120Z,99629.63
2023-03-05T23:25:57.522Z,99629.94
2023-03-05T23:28:25.623Z,99631.84
2023-03-05T23:31:07.240Z,99630.22
2023-03-05T23:33:38.484Z,99626.28
2023-03-05T23:36:11.244Z,99627.06
2023-03-05T23:38:47.708Z,99623.88
2023-03-05T23:41:17.951Z,99629.25
2023-03-05T23:43:48.629Z,99626.87
2023-03-05T23:46:21.979Z,99619.91
2023-03-05T23:48:58.642Z,99619.13
2023-03-05T23:51:26.131Z,99619.13
2023-03-05T23:53:55.066Z,99608.34
2023-03-05T23:56:32.276Z,99606.75
2023-03-05T23:59:05.684Z,99611.34
